sensor_id;sensor_type;location;lat;lon;timestamp;pressure;altitude;pressure_sealevel;temperature
48894;BMP280;34710;35.798;139.446;2023-06-05T00:00:47;99972.69;;;27.96
48894;BMP280;34710;35.798;139.446;2023-06-05T00:03:12;99966.89;;;26.95
48894;BMP280;34710;35.798;139.446;2023-06-05T00:05:37;99967.54;;;24.89
48894;BMP280;34710;35.798;139.446;2023-06-05T00:08:02;99975.87;;;24.19
48894;BMP280;34710;35.798;139.446;2023-06-05T00:10:27;99973.25;;;25.35
48894;BMP280;34710;35.798;139.446;2023-06-05T00:12:53;99970.96;;;26.36
48894;BMP280;34710;35.798;139.446;2023-06-05T00:15:19;99971.29;;;26.37
48894;BMP280;34710;35.798;139.446;2023-06-05T00:17:44;99964.50;;;25.97
48894;BMP280;34710;35.798;139.446;2023-06-05T00:20:09;99964.63;;;26.11
48894;BMP280;34710;35.798;139.446;2023-06-05T00:22:33;99969.21;;;25.73
48894;BMP280;34710;35.798;139.446;2023-06-05T00:24:58;99965.80;;;27.49
48894;BMP280;34710;35.798;139.446;2023-06-05T00:27:24;99962.38;;;27.78
48894;BMP280;34710;35.798;139.446;2023-06-05T00:29:49;99961.01;;;26.32
48894;BMP280;34710;35.798;139.446;2023-06-05T00:32:14;99960.77;;;27.50
48894;BMP280;34710;35.798;139.446;2023-06-05T00:34:39;99962.16;;;27.27
48894;BMP280;34710;35.798;139.446;2023-06-05T00:37:04;99956.32;;;26.52
48894;BMP280;34710;35.798;139.446;2023-06-05T00:39:30;99958.32;;;27.68
48894;BMP280;34710;35.798;139.446;2023-06-05T00:41:55;99960.34;;;27.77
48894;BMP280;34710;35.798;139.446;2023-06-05T00:44:20;99956.52;;;28.10
48894;BMP280;34710;35.798;139.446;2023-06-05T00:46:45;99949.43;;;29.57
48894;BMP280;34710;35.798;139.446;2023-06-05T00:49:10;99950.89;;;27.61
48894;BMP280;34710;35.798;139.446;2023-06-05T00:51:36;99951.29;;;27.36
48894;BMP280;34710;35.798;139.446;2023-06-05T00:54:01;99952.66;;;28.36
48894;BMP280;34710;35.798;139.446;2023-06-05T00:56:25;99950.34;;;26.60
48894;BMP280;34710;35.798;139.446;2023-06-05T00:58:52;99949.53;;;28.83
48894;BMP280;34710;35.798;139.446;2023-06-05T01:01:16;99946.49;;;29.93
48894;BMP280;34710;35.798;139.446;2023-06-05T01:03:40;99946.27;;;30.27
48894;BMP280;34710;35.798;139.446;2023-06-05T01:06:06;99947.07;;;26.98
48894;BMP280;34710;35.798;139.446;2023-06-05T01:08:33;99943.59;;;29.10
48894;BMP280;34710;35.798;139.446;2023-06-05T01:10:58;99944.00;;;29.27
48894;BMP280;34710;35.798;139.446;2023-06-05T01:13:25;99945.77;;;29.37
48894;BMP280;34710;35.798;139.446;2023-06-05T01:15:47;99944.29;;;30.08
48894;BMP280;34710;35.798;139.446;2023-06-05T01:18:11;99944.44;;;29.18
48894;BMP280;34710;35.798;139.446;2023-06-05T01:20:38;99945.86;;;29.97
48894;BMP280;34710;35.798;139.446;2023-06-05T01:23:02;99942.12;;;30.85
48894;BMP280;34710;35.798;139.446;2023-06-05T01:25:27;99946.40;;;28.97
48894;BMP280;34710;35.798;139.446;2023-06-05T01:27:57;99946.85;;;30.76
48894;BMP280;34710;35.798;139.446;2023-06-05T01:30:21;99945.58;;;30.87
48894;BMP280;34710;35.798;139.446;2023-06-05T01:32:45;99944.01;;;31.22
48894;BMP280;34710;35.798;139.446;2023-06-05T01:35:08;99943.86;;;31.34
48894;BMP280;34710;35.798;139.446;2023-06-05T01:37:33;99944.79;;;32.57
48894;BMP280;34710;35.798;139.446;2023-06-05T01:39:58;99944.11;;;31.71
48894;BMP280;34710;35.798;139.446;2023-06-05T01:42:23;99946.06;;;33.24
48894;BMP280;34710;35.798;139.446;2023-06-05T01:44:48;99947.48;;;33.07
48894;BMP280;34710;35.798;139.446;2023-06-05T01:47:13;99946.21;;;33.11
48894;BMP280;34710;35.798;139.446;2023-06-05T01:49:37;99944.26;;;32.81
48894;BMP280;34710;35.798;139.446;2023-06-05T01:52:03;99938.52;;;31.13
48894;BMP280;34710;35.798;139.446;2023-06-05T01:54:27;99936.07;;;32.81
48894;BMP280;34710;35.798;139.446;2023-06-05T01:56:53;99931.78;;;30.35
48894;BMP280;34710;35.798;139.446;2023-06-05T01:59:18;99931.20;;;31.81
48894;BMP280;34710;35.798;139.446;2023-06-05T02:01:43;99928.42;;;32.69
48894;BMP280;34710;35.798;139.446;2023-06-05T02:04:07;99926.94;;;32.68
48894;BMP280;34710;35.798;139.446;2023-06-05T02:06:34;99920.32;;;33.76
48894;BMP280;34710;35.798;139.446;2023-06-05T02:08:58;99921.07;;;34.36
48894;BMP280;34710;35.798;139.446;2023-06-05T02:11:23;99915.53;;;33.52
48894;BMP280;34710;35.798;139.446;2023-06-05T02:13:48;99906.90;;;34.59
48894;BMP280;34710;35.798;139.446;2023-06-05T02:16:13;99908.26;;;35.15
48894;BMP280;34710;35.798;139.446;2023-06-05T02:18:38;99909.12;;;34.90
48894;BMP280;34710;35.798;139.446;2023-06-05T02:21:03;99905.38;;;34.57
48894;BMP280;34710;35.798;139.446;2023-06-05T02:23:28;99901.72;;;33.81
48894;BMP280;34710;35.798;139.446;2023-06-05T02:25:53;99899.81;;;31.04
48894;BMP280;34710;35.798;139.446;2023-06-05T02:28:18;99900.26;;;32.81
48894;BMP280;34710;35.798;139.446;2023-06-05T02:30:43;99899.54;;;32.85
48894;BMP280;34710;35.798;139.446;2023-06-05T02:33:09;99896.51;;;32.81
48894;BMP280;34710;35.798;139.446;2023-06-05T02:35:34;99897.12;;;31.34
48894;BMP280;34710;35.798;139.446;2023-06-05T02:37:59;99894.29;;;32.72
48894;BMP280;34710;35.798;139.446;2023-06-05T02:40:24;99888.75;;;30.46
48894;BMP280;34710;35.798;139.446;2023-06-05T02:42:49;99893.70;;;31.43
48894;BMP280;34710;35.798;139.446;2023-06-05T02:45:14;99895.43;;;31.51
48894;BMP280;34710;35.798;139.446;2023-06-05T02:47:40;99893.56;;;31.90
48894;BMP280;34710;35.798;139.446;2023-06-05T02:50:08;99888.35;;;31.70
48894;BMP280;34710;35.798;139.446;2023-06-05T02:52:29;99886.59;;;31.49
48894;BMP280;34710;35.798;139.446;2023-06-05T02:54:55;99879.36;;;32.79
48894;BMP280;34710;35.798;139.446;2023-06-05T02:57:20;99878.86;;;32.37
48894;BMP280;34710;35.798;139.446;2023-06-05T02:59:45;99881.40;;;33.33
48894;BMP280;34710;35.798;139.446;2023-06-05T03:02:10;99877.57;;;32.39
48894;BMP280;34710;35.798;139.446;2023-06-05T03:04:35;99875.57;;;32.39
48894;BMP280;34710;35.798;139.446;2023-06-05T03:07:00;99871.43;;;32.87
48894;BMP280;34710;35.798;139.446;2023-06-05T03:09:25;99864.66;;;29.76
48894;BMP280;34710;35.798;139.446;2023-06-05T03:11:50;99865.90;;;30.23
48894;BMP280;34710;35.798;139.446;2023-06-05T03:14:15;99859.00;;;30.54
48894;BMP280;34710;35.798;139.446;2023-06-05T03:16:40;99859.32;;;30.43
48894;BMP280;34710;35.798;139.446;2023-06-05T03:19:05;99854.98;;;30.18
48894;BMP280;34710;35.798;139.446;2023-06-05T03:21:31;99848.07;;;31.48
48894;BMP280;34710;35.798;139.446;2023-06-05T03:23:56;99849.40;;;33.17
48894;BMP280;34710;35.798;139.446;2023-06-05T03:26:20;99843.18;;;31.43
48894;BMP280;34710;35.798;139.446;2023-06-05T03:28:46;99844.42;;;30.07
48894;BMP280;34710;35.798;139.446;2023-06-05T03:31:11;99849.87;;;29.36
48894;BMP280;34710;35.798;139.446;2023-06-05T03:33:36;99846.09;;;30.07
48894;BMP280;34710;35.798;139.446;2023-06-05T03:36:01;99839.26;;;30.25
48894;BMP280;34710;35.798;139.446;2023-06-05T03:38:26;99839.13;;;31.04
48894;BMP280;34710;35.798;139.446;2023-06-05T03:40:51;99832.56;;;31.00
48894;BMP280;34710;35.798;139.446;2023-06-05T03:43:17;99830.31;;;30.33
48894;BMP280;34710;35.798;139.446;2023-06-05T03:45:42;99831.15;;;30.77
48894;BMP280;34710;35.798;139.446;2023-06-05T03:48:07;99836.42;;;32.00
48894;BMP280;34710;35.798;139.446;2023-06-05T03:50:32;99840.08;;;31.68
48894;BMP280;34710;35.798;139.446;2023-06-05T03:52:57;99834.04;;;32.03
48894;BMP280;34710;35.798;139.446;2023-06-05T03:55:22;99838.10;;;30.36
48894;BMP280;34710;35.798;139.446;2023-06-05T03:57:48;99839.32;;;32.22
48894;BMP280;34710;35.798;139.446;2023-06-05T04:00:13;99834.15;;;33.20
48894;BMP280;34710;35.798;139.446;2023-06-05T04:02:37;99831.60;;;32.00
48894;BMP280;34710;35.798;139.446;2023-06-05T04:05:03;99833.27;;;30.62
48894;BMP280;34710;35.798;139.446;2023-06-05T04:07:27;99831.63;;;30.81
48894;BMP280;34710;35.798;139.446;2023-06-05T04:09:53;99830.09;;;29.67
48894;BMP280;34710;35.798;139.446;2023-06-05T04:12:18;99826.98;;;31.31
48894;BMP280;34710;35.798;139.446;2023-06-05T04:14:43;99834.18;;;31.03
48894;BMP280;34710;35.798;139.446;2023-06-05T04:17:08;99828.89;;;32.17
48894;BMP280;34710;35.798;139.446;2023-06-05T04:19:33;99827.84;;;30.48
48894;BMP280;34710;35.798;139.446;2023-06-05T04:21:58;99818.53;;;29.53
48894;BMP280;34710;35.798;139.446;2023-06-05T04:24:23;99816.98;;;29.84
48894;BMP280;34710;35.798;139.446;2023-06-05T04:26:48;99812.22;;;30.59
48894;BMP280;34710;35.798;139.446;2023-06-05T04:29:13;99810.36;;;30.93
48894;BMP280;34710;35.798;139.446;2023-06-05T04:31:38;99801.73;;;29.71
48894;BMP280;34710;35.798;139.446;2023-06-05T04:34:04;99804.62;;;30.41
48894;BMP280;34710;35.798;139.446;2023-06-05T04:36:29;99799.65;;;31.78
48894;BMP280;34710;35.798;139.446;2023-06-05T04:38:54;99803.89;;;30.96
48894;BMP280;34710;35.798;139.446;2023-06-05T04:41:19;99804.77;;;30.76
48894;BMP280;34710;35.798;139.446;2023-06-05T04:43:44;99813.12;;;31.48
48894;BMP280;34710;35.798;139.446;2023-06-05T04:46:09;99811.67;;;31.60
48894;BMP280;34710;35.798;139.446;2023-06-05T04:48:34;99812.51;;;29.71
48894;BMP280;34710;35.798;139.446;2023-06-05T04:50:59;99811.57;;;30.27
48894;BMP280;34710;35.798;139.446;2023-06-05T04:53:24;99808.48;;;31.93
48894;BMP280;34710;35.798;139.446;2023-06-05T04:55:50;99807.10;;;30.67
48894;BMP280;34710;35.798;139.446;2023-06-05T04:58:14;99801.38;;;30.11
48894;BMP280;34710;35.798;139.446;2023-06-05T05:00:40;99799.60;;;31.40
48894;BMP280;34710;35.798;139.446;2023-06-05T05:03:05;99800.52;;;32.01
48894;BMP280;34710;35.798;139.446;2023-06-05T05:05:30;99800.18;;;30.49
48894;BMP280;34710;35.798;139.446;2023-06-05T05:07:55;99810.04;;;30.63
48894;BMP280;34710;35.798;139.446;2023-06-05T05:10:19;99798.93;;;30.94
48894;BMP280;34710;35.798;139.446;2023-06-05T05:12:45;99801.36;;;31.66
48894;BMP280;34710;35.798;139.446;2023-06-05T05:15:11;99788.94;;;30.58
48894;BMP280;34710;35.798;139.446;2023-06-05T05:17:35;99789.41;;;29.83
48894;BMP280;34710;35.798;139.446;2023-06-05T05:20:00;99783.72;;;30.08
48894;BMP280;34710;35.798;139.446;2023-06-05T05:22:26;99794.03;;;28.67
48894;BMP280;34710;35.798;139.446;2023-06-05T05:24:50;99791.99;;;29.54
48894;BMP280;34710;35.798;139.446;2023-06-05T05:27:15;99790.44;;;29.88
48894;BMP280;34710;35.798;139.446;2023-06-05T05:29:40;99794.23;;;29.51
48894;BMP280;34710;35.798;139.446;2023-06-05T05:32:05;99788.66;;;28.51
48894;BMP280;34710;35.798;139.446;2023-06-05T05:34:30;99797.00;;;29.80
48894;BMP280;34710;35.798;139.446;2023-06-05T05:36:56;99793.49;;;28.69
48894;BMP280;34710;35.798;139.446;2023-06-05T05:39:21;99785.40;;;29.12
48894;BMP280;34710;35.798;139.446;2023-06-05T05:41:46;99785.83;;;28.82
48894;BMP280;34710;35.798;139.446;2023-06-05T05:44:11;99793.62;;;28.42
48894;BMP280;34710;35.798;139.446;2023-06-05T05:46:36;99789.93;;;27.56
48894;BMP280;34710;35.798;139.446;2023-06-05T05:49:01;99786.08;;;27.97
48894;BMP280;34710;35.798;139.446;2023-06-05T05:51:26;99790.64;;;27.68
48894;BMP280;34710;35.798;139.446;2023-06-05T05:53:51;99800.66;;;27.50
48894;BMP280;34710;35.798;139.446;2023-06-05T05:56:16;99792.35;;;28.44
48894;BMP280;34710;35.798;139.446;2023-06-05T05:58:41;99799.51;;;27.80
48894;BMP280;34710;35.798;139.446;2023-06-05T06:01:07;99804.22;;;27.53
48894;BMP280;34710;35.798;139.446;2023-06-05T06:03:32;99811.58;;;26.71
48894;BMP280;34710;35.798;139.446;2023-06-05T06:05:57;99811.40;;;27.91
48894;BMP280;34710;35.798;139.446;2023-06-05T06:08:22;99815.02;;;27.41
48894;BMP280;34710;35.798;139.446;2023-06-05T06:10:47;99828.10;;;26.56
48894;BMP280;34710;35.798;139.446;2023-06-05T06:13:12;99830.80;;;27.87
48894;BMP280;34710;35.798;139.446;2023-06-05T06:15:38;99837.72;;;27.50
48894;BMP280;34710;35.798;139.446;2023-06-05T06:18:02;99835.45;;;25.87
48894;BMP280;34710;35.798;139.446;2023-06-05T06:20:28;99829.96;;;26.15
48894;BMP280;34710;35.798;139.446;2023-06-05T06:22:52;99834.48;;;26.67
48894;BMP280;34710;35.798;139.446;2023-06-05T06:25:19;99830.10;;;27.09
48894;BMP280;34710;35.798;139.446;2023-06-05T06:27:42;99832.49;;;27.02
48894;BMP280;34710;35.798;139.446;2023-06-05T06:30:08;99833.04;;;27.28
48894;BMP280;34710;35.798;139.446;2023-06-05T06:32:33;99826.00;;;26.34
48894;BMP280;34710;35.798;139.446;2023-06-05T06:34:58;99829.86;;;26.37
48894;BMP280;34710;35.798;139.446;2023-06-05T06:37:23;99832.48;;;25.35
48894;BMP280;34710;35.798;139.446;2023-06-05T06:39:48;99832.15;;;24.86
48894;BMP280;34710;35.798;139.446;2023-06-05T06:42:13;99833.66;;;26.00
48894;BMP280;34710;35.798;139.446;2023-06-05T06:44:38;99835.60;;;26.13
48894;BMP280;34710;35.798;139.446;2023-06-05T06:47:03;99830.52;;;25.15
48894;BMP280;34710;35.798;139.446;2023-06-05T06:49:28;99834.75;;;26.05
48894;BMP280;34710;35.798;139.446;2023-06-05T06:51:54;99831.50;;;25.95
48894;BMP280;34710;35.798;139.446;2023-06-05T06:54:18;99835.21;;;25.94
48894;BMP280;34710;35.798;139.446;2023-06-05T06:56:43;99835.45;;;25.54
48894;BMP280;34710;35.798;139.446;2023-06-05T06:59:13;99844.12;;;25.03
48894;BMP280;34710;35.798;139.446;2023-06-05T07:01:35;99846.85;;;24.75
48894;BMP280;34710;35.798;139.446;2023-06-05T07:03:59;99840.09;;;25.51
48894;BMP280;34710;35.798;139.446;2023-06-05T07:06:25;99838.82;;;26.19
48894;BMP280;34710;35.798;139.446;2023-06-05T07:08:50;99840.06;;;26.34
48894;BMP280;34710;35.798;139.446;2023-06-05T07:11:16;99838.34;;;25.45
48894;BMP280;34710;35.798;139.446;2023-06-05T07:13:40;99842.62;;;25.53
48894;BMP280;34710;35.798;139.446;2023-06-05T07:16:05;99844.68;;;26.20
48894;BMP280;34710;35.798;139.446;2023-06-05T07:18:31;99848.06;;;25.86
48894;BMP280;34710;35.798;139.446;2023-06-05T07:20:56;99841.61;;;26.26
48894;BMP280;34710;35.798;139.446;2023-06-05T07:23:21;99836.91;;;25.68
48894;BMP280;34710;35.798;139.446;2023-06-05T07:25:47;99840.71;;;26.47
48894;BMP280;34710;35.798;139.446;2023-06-05T07:28:12;99844.99;;;25.15
48894;BMP280;34710;35.798;139.446;2023-06-05T07:30:36;99848.41;;;26.19
48894;BMP280;34710;35.798;139.446;2023-06-05T07:33:02;99854.92;;;26.40
48894;BMP280;34710;35.798;139.446;2023-06-05T07:35:27;99853.29;;;25.66
48894;BMP280;34710;35.798;139.446;2023-06-05T07:37:52;99854.41;;;25.96
48894;BMP280;34710;35.798;139.446;2023-06-05T07:40:18;99857.80;;;26.52
48894;BMP280;34710;35.798;139.446;2023-06-05T07:42:43;99864.13;;;25.85
48894;BMP280;34710;35.798;139.446;2023-06-05T07:45:09;99862.19;;;25.70
48894;BMP280;34710;35.798;139.446;2023-06-05T07:47:34;99863.72;;;25.61
48894;BMP280;34710;35.798;139.446;2023-06-05T07:49:59;99865.84;;;25.58
48894;BMP280;34710;35.798;139.446;2023-06-05T07:52:25;99860.99;;;24.68
48894;BMP280;34710;35.798;139.446;2023-06-05T07:54:49;99864.83;;;25.29
48894;BMP280;34710;35.798;139.446;2023-06-05T07:57:14;99865.83;;;26.26
48894;BMP280;34710;35.798;139.446;2023-06-05T07:59:39;99867.65;;;24.57
48894;BMP280;34710;35.798;139.446;2023-06-05T08:02:05;99869.18;;;24.79
48894;BMP280;34710;35.798;139.446;2023-06-05T08:04:30;99875.78;;;25.03
48894;BMP280;34710;35.798;139.446;2023-06-05T08:06:55;99879.93;;;25.23
48894;BMP280;34710;35.798;139.446;2023-06-05T08:09:20;99881.58;;;24.90
48894;BMP280;34710;35.798;139.446;2023-06-05T08:11:45;99886.43;;;24.81
48894;BMP280;34710;35.798;139.446;2023-06-05T08:14:10;99883.40;;;25.24
48894;BMP280;34710;35.798;139.446;2023-06-05T08:16:36;99887.28;;;25.26
48894;BMP280;34710;35.798;139.446;2023-06-05T08:19:01;99880.68;;;26.16
48894;BMP280;34710;35.798;139.446;2023-06-05T08:21:25;99880.95;;;24.86
48894;BMP280;34710;35.798;139.446;2023-06-05T08:23:51;99878.97;;;24.70
48894;BMP280;34710;35.798;139.446;2023-06-05T08:26:16;99871.46;;;24.58
48894;BMP280;34710;35.798;139.446;2023-06-05T08:28:42;99876.07;;;24.22
48894;BMP280;34710;35.798;139.446;2023-06-05T08:31:07;99876.26;;;23.93
48894;BMP280;34710;35.798;139.446;2023-06-05T08:33:32;99883.38;;;24.43
48894;BMP280;34710;35.798;139.446;2023-06-05T08:35:57;99877.00;;;24.38
48894;BMP280;34710;35.798;139.446;2023-06-05T08:38:22;99871.47;;;24.61
48894;BMP280;34710;35.798;139.446;2023-06-05T08:40:48;99873.02;;;25.14
48894;BMP280;34710;35.798;139.446;2023-06-05T08:43:13;99878.44;;;24.62
48894;BMP280;34710;35.798;139.446;2023-06-05T08:45:38;99876.25;;;24.95
48894;BMP280;34710;35.798;139.446;2023-06-05T08:48:03;99874.75;;;25.14
48894;BMP280;34710;35.798;139.446;2023-06-05T08:50:29;99878.36;;;24.94
48894;BMP280;34710;35.798;139.446;2023-06-05T08:52:53;99888.72;;;24.67
48894;BMP280;34710;35.798;139.446;2023-06-05T08:55:18;99898.96;;;24.16
48894;BMP280;34710;35.798;139.446;2023-06-05T08:57:43;99892.98;;;24.77
48894;BMP280;34710;35.798;139.446;2023-06-05T09:00:09;99900.85;;;24.51
48894;BMP280;34710;35.798;139.446;2023-06-05T09:02:33;99908.00;;;23.79
48894;BMP280;34710;35.798;139.446;2023-06-05T09:04:58;99916.37;;;24.36
48894;BMP280;34710;35.798;139.446;2023-06-05T09:07:25;99924.62;;;24.06
48894;BMP280;34710;35.798;139.446;2023-06-05T09:09:49;99924.13;;;24.08
48894;BMP280;34710;35.798;139.446;2023-06-05T09:12:15;99919.47;;;23.50
48894;BMP280;34710;35.798;139.446;2023-06-05T09:14:40;99922.11;;;23.84
48894;BMP280;34710;35.798;139.446;2023-06-05T09:17:11;99921.09;;;24.92
48894;BMP280;34710;35.798;139.446;2023-06-05T09:19:36;99917.82;;;24.85
48894;BMP280;34710;35.798;139.446;2023-06-05T09:21:56;99915.66;;;25.39
48894;BMP280;34710;35.798;139.446;2023-06-05T09:24:22;99914.08;;;25.39
48894;BMP280;34710;35.798;139.446;2023-06-05T09:26:51;99922.91;;;24.14
48894;BMP280;34710;35.798;139.446;2023-06-05T09:29:11;99930.24;;;23.60
48894;BMP280;34710;35.798;139.446;2023-06-05T09:31:41;99926.27;;;23.22
48894;BMP280;34710;35.798;139.446;2023-06-05T09:34:02;99923.89;;;24.05
48894;BMP280;34710;35.798;139.446;2023-06-05T09:36:27;99927.04;;;23.53
48894;BMP280;34710;35.798;139.446;2023-06-05T09:38:52;99927.62;;;23.78
48894;BMP280;34710;35.798;139.446;2023-06-05T09:41:17;99930.38;;;24.92
48894;BMP280;34710;35.798;139.446;2023-06-05T09:43:42;99932.42;;;25.70
48894;BMP280;34710;35.798;139.446;2023-06-05T09:46:09;99936.48;;;25.50
48894;BMP280;34710;35.798;139.446;2023-06-05T09:48:32;99940.99;;;25.13
48894;BMP280;34710;35.798;139.446;2023-06-05T09:51:09;99943.39;;;24.93
48894;BMP280;34710;35.798;139.446;2023-06-05T09:53:22;99942.59;;;25.23
48894;BMP280;34710;35.798;139.446;2023-06-05T09:55:48;99943.79;;;25.50
48894;BMP280;34710;35.798;139.446;2023-06-05T09:58:15;99947.11;;;25.99
48894;BMP280;34710;35.798;139.446;2023-06-05T10:00:39;99952.55;;;26.10
48894;BMP280;34710;35.798;139.446;2023-06-05T10:03:08;99954.25;;;25.01
48894;BMP280;34710;35.798;139.446;2023-06-05T10:05:29;99951.26;;;24.82
48894;BMP280;34710;35.798;139.446;2023-06-05T10:07:54;99949.91;;;25.29
48894;BMP280;34710;35.798;139.446;2023-06-05T10:10:19;99956.02;;;25.18
48894;BMP280;34710;35.798;139.446;2023-06-05T10:12:45;99956.96;;;25.12
48894;BMP280;34710;35.798;139.446;2023-06-05T10:15:11;99951.73;;;24.60
48894;BMP280;34710;35.798;139.446;2023-06-05T10:17:35;99953.22;;;24.40
48894;BMP280;34710;35.798;139.446;2023-06-05T10:20:00;99955.03;;;24.15
48894;BMP280;34710;35.798;139.446;2023-06-05T10:22:26;99952.47;;;24.72
48894;BMP280;34710;35.798;139.446;2023-06-05T10:24:56;99958.43;;;23.72
48894;BMP280;34710;35.798;139.446;2023-06-05T10:27:26;99956.15;;;23.73
48894;BMP280;34710;35.798;139.446;2023-06-05T10:32:10;99949.12;;;24.73
48894;BMP280;34710;35.798;139.446;2023-06-05T10:34:48;99949.71;;;24.92
48894;BMP280;34710;35.798;139.446;2023-06-05T10:39:23;99960.81;;;23.28
48894;BMP280;34710;35.798;139.446;2023-06-05T10:41:51;99965.66;;;23.29
48894;BMP280;34710;35.798;139.446;2023-06-05T10:44:13;99965.12;;;23.72
48894;BMP280;34710;35.798;139.446;2023-06-05T10:46:39;99960.98;;;24.46
48894;BMP280;34710;35.798;139.446;2023-06-05T10:49:13;99965.61;;;24.00
48894;BMP280;34710;35.798;139.446;2023-06-05T10:51:35;99966.48;;;24.33
48894;BMP280;34710;35.798;139.446;2023-06-05T10:53:53;99966.42;;;24.01
48894;BMP280;34710;35.798;139.446;2023-06-05T11:01:19;99969.04;;;24.95
48894;BMP280;34710;35.798;139.446;2023-06-05T11:06:12;99987.42;;;24.37
48894;BMP280;34710;35.798;139.446;2023-06-05T11:08:26;99989.70;;;22.12
48894;BMP280;34710;35.798;139.446;2023-06-05T11:11:03;99989.87;;;22.17
48894;BMP280;34710;35.798;139.446;2023-06-05T11:13:16;99987.14;;;21.98
48894;BMP280;34710;35.798;139.446;2023-06-05T11:15:43;99991.18;;;22.12
48894;BMP280;34710;35.798;139.446;2023-06-05T11:23:07;100002.03;;;22.27
48894;BMP280;34710;35.798;139.446;2023-06-05T11:25:28;100004.62;;;21.64
48894;BMP280;34710;35.798;139.446;2023-06-05T11:27:49;100005.14;;;22.76
48894;BMP280;34710;35.798;139.446;2023-06-05T11:30:13;100015.73;;;22.41
48894;BMP280;34710;35.798;139.446;2023-06-05T11:32:38;100018.42;;;23.46
48894;BMP280;34710;35.798;139.446;2023-06-05T11:35:04;100017.76;;;24.09
48894;BMP280;34710;35.798;139.446;2023-06-05T11:37:29;100021.89;;;24.62
48894;BMP280;34710;35.798;139.446;2023-06-05T11:39:53;100026.87;;;24.60
48894;BMP280;34710;35.798;139.446;2023-06-05T11:42:23;100032.25;;;23.65
48894;BMP280;34710;35.798;139.446;2023-06-05T11:44:45;100034.06;;;24.02
48894;BMP280;34710;35.798;139.446;2023-06-05T11:49:36;100027.61;;;25.00
48894;BMP280;34710;35.798;139.446;2023-06-05T11:52:02;100036.39;;;23.75
48894;BMP280;34710;35.798;139.446;2023-06-05T11:54:28;100037.45;;;24.66
48894;BMP280;34710;35.798;139.446;2023-06-05T11:56:56;100035.76;;;24.54
48894;BMP280;34710;35.798;139.446;2023-06-05T11:59:17;100042.81;;;23.13
48894;BMP280;34710;35.798;139.446;2023-06-05T12:01:45;100044.43;;;21.70
48894;BMP280;34710;35.798;139.446;2023-06-05T12:04:08;100045.76;;;21.89
48894;BMP280;34710;35.798;139.446;2023-06-05T12:06:40;100038.37;;;21.36
48894;BMP280;34710;35.798;139.446;2023-06-05T12:09:08;100036.25;;;22.84
48894;BMP280;34710;35.798;139.446;2023-06-05T12:11:25;100032.47;;;23.03
48894;BMP280;34710;35.798;139.446;2023-06-05T12:13:51;100030.40;;;23.52
48894;BMP280;34710;35.798;139.446;2023-06-05T12:16:16;100026.91;;;23.55
48894;BMP280;34710;35.798;139.446;2023-06-05T12:18:40;100022.58;;;23.42
48894;BMP280;34710;35.798;139.446;2023-06-05T12:21:05;100022.46;;;23.18
48894;BMP280;34710;35.798;139.446;2023-06-05T12:23:32;100029.46;;;23.47
48894;BMP280;34710;35.798;139.446;2023-06-05T12:26:00;100025.52;;;24.03
48894;BMP280;34710;35.798;139.446;2023-06-05T12:28:22;100026.94;;;24.34
48894;BMP280;34710;35.798;139.446;2023-06-05T12:30:47;100028.84;;;24.98
48894;BMP280;34710;35.798;139.446;2023-06-05T12:33:12;100031.82;;;25.13
48894;BMP280;34710;35.798;139.446;2023-06-05T12:35:37;100029.77;;;24.89
48894;BMP280;34710;35.798;139.446;2023-06-05T12:38:03;100030.74;;;25.29
48894;BMP280;34710;35.798;139.446;2023-06-05T12:40:28;100032.20;;;24.56
48894;BMP280;34710;35.798;139.446;2023-06-05T12:42:53;100029.88;;;24.55
48894;BMP280;34710;35.798;139.446;2023-06-05T12:45:18;100034.03;;;24.57
48894;BMP280;34710;35.798;139.446;2023-06-05T12:47:43;100034.11;;;24.89
48894;BMP280;34710;35.798;139.446;2023-06-05T12:50:10;100033.00;;;25.45
48894;BMP280;34710;35.798;139.446;2023-06-05T12:52:33;100032.78;;;25.06
48894;BMP280;34710;35.798;139.446;2023-06-05T12:54:59;100030.99;;;24.91
48894;BMP280;34710;35.798;139.446;2023-06-05T12:57:24;100035.36;;;24.62
48894;BMP280;34710;35.798;139.446;2023-06-05T12:59:51;100038.62;;;24.74
48894;BMP280;34710;35.798;139.446;2023-06-05T13:02:14;100038.24;;;23.57
48894;BMP280;34710;35.798;139.446;2023-06-05T13:04:40;100034.80;;;24.86
48894;BMP280;34710;35.798;139.446;2023-06-05T13:07:06;100037.06;;;24.36
48894;BMP280;34710;35.798;139.446;2023-06-05T13:09:31;100039.59;;;25.22
48894;BMP280;34710;35.798;139.446;2023-06-05T13:11:57;100036.32;;;24.73
48894;BMP280;34710;35.798;139.446;2023-06-05T13:14:22;100038.87;;;24.71
48894;BMP280;34710;35.798;139.446;2023-06-05T13:16:47;100041.50;;;24.06
48894;BMP280;34710;35.798;139.446;2023-06-05T13:19:13;100039.08;;;24.35
48894;BMP280;34710;35.798;139.446;2023-06-05T13:21:37;100036.86;;;22.94
48894;BMP280;34710;35.798;139.446;2023-06-05T13:24:03;100037.11;;;23.79
48894;BMP280;34710;35.798;139.446;2023-06-05T13:26:27;100033.86;;;23.23
48894;BMP280;34710;35.798;139.446;2023-06-05T13:28:52;100033.03;;;23.16
48894;BMP280;34710;35.798;139.446;2023-06-05T13:31:19;100034.31;;;22.42
48894;BMP280;34710;35.798;139.446;2023-06-05T13:33:44;100037.15;;;22.48
48894;BMP280;34710;35.798;139.446;2023-06-05T13:36:09;100036.52;;;22.40
48894;BMP280;34710;35.798;139.446;2023-06-05T13:38:34;100037.06;;;22.94
48894;BMP280;34710;35.798;139.446;2023-06-05T13:40:59;100039.46;;;23.17
48894;BMP280;34710;35.798;139.446;2023-06-05T13:43:25;100034.29;;;22.12
48894;BMP280;34710;35.798;139.446;2023-06-05T13:45:51;100032.52;;;21.26
48894;BMP280;34710;35.798;139.446;2023-06-05T13:48:16;100035.52;;;22.35